Time;durP1;ratioP1;P1;durP2;ratioP2;P2;SDS_P1;SDS_P2;PMS_P1;PMS_P2;Temp;Humidity;BMP_temperature;BMP_pressure;BME280_temperature;BME280_humidity;BME280_pressure;Samples;Min_cycle;Max_cycle;Signal;HPM_P1;HPM_P2
2022/01/16 00:01:01;;;;;;;83.20;30.20;;;;;;;-1.72;89.20;99372.11;106067;1277;23351;-83
2022/01/16 00:06:13;;;;;;;75.90;32.70;;;;;;;-1.64;89.47;99371.09;106057;1277;22659;-82
2022/01/16 00:08:54;;;;;;;71.60;29.00;;;;;;;-1.63;89.07;99371.68;106132;1277;24302;-81
2022/01/16 00:11:20;;;;;;;65.90;26.00;;;;;;;-1.63;89.15;99373.99;106103;1277;138587;-81
2022/01/16 00:13:46;;;;;;;61.50;25.90;;;;;;;-1.63;89.19;99377.86;106438;1277;22651;-81
2022/01/16 00:16:15;;;;;;;52.80;22.00;;;;;;;-1.65;89.15;99379.85;106107;1277;137920;-81
2022/01/16 00:18:52;;;;;;;57.60;23.60;;;;;;;-1.69;89.21;99372.09;106252;1277;25284;-81
2022/01/16 00:21:21;;;;;;;56.30;24.30;;;;;;;-1.73;89.32;99360.81;106001;1277;22567;-81
2022/01/16 00:23:48;;;;;;;58.40;24.30;;;;;;;-1.73;89.33;99352.87;106058;1277;138244;-82
2022/01/16 00:26:18;;;;;;;59.40;25.40;;;;;;;-1.73;89.30;99333.58;106351;1277;22635;-82
2022/01/16 00:28:45;;;;;;;62.40;24.40;;;;;;;-1.72;89.43;99340.50;106166;1277;137636;-82
2022/01/16 00:31:12;;;;;;;58.80;26.00;;;;;;;-1.72;89.47;99356.98;106159;1277;24082;-83
2022/01/16 00:33:42;;;;;;;67.00;26.50;;;;;;;-1.69;89.74;99347.54;106247;1277;138380;-81
2022/01/16 00:36:10;;;;;;;53.50;26.10;;;;;;;-1.67;89.78;99352.96;106252;1277;22548;-83
2022/01/16 00:38:40;;;;;;;59.40;24.70;;;;;;;-1.62;89.91;99352.52;106089;1277;22730;-83
2022/01/16 00:41:10;;;;;;;62.20;25.80;;;;;;;-1.56;89.93;99334.83;106009;1277;137894;-83
2022/01/16 00:43:36;;;;;;;53.30;22.90;;;;;;;-1.52;89.63;99302.13;106283;1278;23253;-83
2022/01/16 00:46:02;;;;;;;65.80;26.50;;;;;;;-1.54;89.50;99325.70;105961;1277;138763;-83
2022/01/16 00:48:29;;;;;;;56.10;24.00;;;;;;;-1.54;88.94;99348.23;106295;1277;23080;-82
2022/01/16 00:50:55;;;;;;;58.70;25.00;;;;;;;-1.59;88.62;99347.83;106373;1277;22596;-82
2022/01/16 00:53:22;;;;;;;59.50;25.40;;;;;;;-1.59;89.20;99348.01;106307;1277;137948;-82
2022/01/16 00:55:48;;;;;;;53.30;21.00;;;;;;;-1.58;89.26;99367.86;106220;1277;25615;-82
2022/01/16 00:58:14;;;;;;;53.90;21.70;;;;;;;-1.61;88.82;99366.86;106061;1277;138282;-83
2022/01/16 01:00:40;;;;;;;51.90;20.40;;;;;;;-1.64;88.80;99350.45;106121;1277;24276;-83
2022/01/16 01:03:07;;;;;;;52.30;20.50;;;;;;;-1.70;88.64;99324.64;106186;1274;23150;-81
2022/01/16 01:05:35;;;;;;;48.90;19.10;;;;;;;-1.76;88.35;99334.40;106081;1277;138565;-82
2022/01/16 01:08:04;;;;;;;44.40;18.10;;;;;;;-1.86;88.15;99347.30;106527;1277;24248;-81
2022/01/16 01:10:34;;;;;;;37.60;15.40;;;;;;;-1.96;88.37;99343.61;106068;1277;137855;-82
2022/01/16 01:15:51;;;;;;;41.40;16.70;;;;;;;-2.13;88.74;99336.41;105999;1277;138256;-81
2022/01/16 01:18:23;;;;;;;40.80;15.90;;;;;;;-2.17;88.68;99313.73;106303;1280;22577;-81
2022/01/16 01:20:51;;;;;;;38.70;14.90;;;;;;;-2.25;88.68;99329.71;106381;1277;24313;-81
2022/01/16 01:23:18;;;;;;;33.50;15.60;;;;;;;-2.32;88.72;99326.48;106135;1277;137704;-81
2022/01/16 01:25:44;;;;;;;39.20;16.70;;;;;;;-2.40;88.97;99308.55;106294;1277;23394;-81
2022/01/16 01:28:12;;;;;;;41.00;16.70;;;;;;;-2.43;89.10;99328.73;106287;1277;138864;-81
2022/01/16 01:30:40;;;;;;;44.30;18.90;;;;;;;-2.46;88.96;99318.34;106368;1277;24269;-80
2022/01/16 01:33:07;;;;;;;31.10;13.50;;;;;;;-2.50;88.97;99333.20;106291;1277;23446;-81
2022/01/16 01:35:38;;;;;;;42.50;16.30;;;;;;;-2.53;88.94;99281.95;105917;1277;137770;-81
2022/01/16 01:38:07;;;;;;;37.40;15.70;;;;;;;-2.56;89.40;99192.45;106325;1277;24261;-80
2022/01/16 01:40:49;;;;;;;38.90;14.10;;;;;;;-2.58;89.31;99199.84;105754;1280;137971;-81
2022/01/16 01:51:24;;;;;;;47.20;16.70;;;;;;;-2.67;89.13;99209.81;106171;1277;26171;-81
2022/01/16 01:53:53;;;;;;;38.60;18.60;;;;;;;-2.72;89.01;99207.48;106168;1277;137464;-81
2022/01/16 01:56:23;;;;;;;44.80;19.10;;;;;;;-2.74;89.70;99237.11;105876;1277;23606;-81
2022/01/16 01:58:51;;;;;;;45.60;18.80;;;;;;;-2.72;90.03;99226.26;105953;1277;138380;-81
2022/01/16 02:01:17;;;;;;;40.20;18.20;;;;;;;-2.66;90.16;99224.98;106518;1277;25274;-81
2022/01/16 02:03:44;;;;;;;47.80;18.80;;;;;;;-2.60;90.03;99238.32;105859;1280;138389;-80
2022/01/16 02:06:16;;;;;;;41.20;17.90;;;;;;;-2.61;89.84;99224.02;106275;1277;22572;-80
2022/01/16 02:08:45;;;;;;;41.80;17.40;;;;;;;-2.56;89.47;99230.48;106231;1277;23304;-81
2022/01/16 02:11:15;;;;;;;46.50;18.60;;;;;;;-2.56;89.07;99199.41;105957;1277;138102;-80
2022/01/16 02:35:38;;;;;;;53.90;25.10;;;;;;;-2.56;88.21;99257.21;105820;1277;137918;-80
2022/01/16 02:38:06;;;;;;;;;;;;;;;-2.59;88.27;99256.92;106000;1277;22535;-80
2022/01/16 02:40:32;;;;;;;46.20;22.70;;;;;;;-2.61;88.44;99254.45;105863;1277;123988;-80
2022/01/16 02:42:59;;;;;;;59.30;27.50;;;;;;;-2.66;88.14;99269.11;105845;1277;23239;-82
2022/01/16 02:45:45;;;;;;;53.40;24.90;;;;;;;-2.72;88.21;99260.05;105783;1277;138896;-82
2022/01/16 02:48:12;;;;;;;53.00;25.70;;;;;;;-2.75;88.51;99249.69;105916;1277;24329;-82
2022/01/16 02:50:38;;;;;;;50.10;23.90;;;;;;;-2.75;88.54;99247.59;106061;1277;22548;-83
2022/01/16 02:53:10;;;;;;;56.50;24.60;;;;;;;-2.80;88.19;99257.41;105872;1277;137726;-82
2022/01/16 02:55:41;;;;;;;54.70;26.60;;;;;;;-2.81;88.81;99249.92;105925;1277;22638;-80
2022/01/16 02:58:08;;;;;;;56.20;27.70;;;;;;;-2.82;89.01;99247.70;105942;1277;138262;-81
2022/01/16 03:00:34;;;;;;;55.10;26.30;;;;;;;-2.82;89.04;99247.14;105852;1277;25361;-82
2022/01/16 03:03:00;;;;;;;55.60;26.50;;;;;;;-2.79;88.78;99250.79;106000;1277;22553;-80
2022/01/16 03:05:26;;;;;;;56.70;26.40;;;;;;;-2.75;89.28;99249.16;105966;1277;137717;-80
2022/01/16 03:07:53;;;;;;;63.00;28.70;;;;;;;-2.70;89.44;99252.27;105901;1277;23177;-80
2022/01/16 03:12:51;;;;;;;63.10;28.90;;;;;;;-2.69;88.57;99249.11;106141;1277;28212;-80
2022/01/16 03:15:19;;;;;;;58.40;27.50;;;;;;;-2.71;88.23;99238.13;106042;1277;22725;-80
2022/01/16 03:23:15;;;;;;;59.70;28.00;;;;;;;-2.72;87.87;99233.08;106103;1277;137667;-82
2022/01/16 03:25:42;;;;;;;63.00;28.50;;;;;;;-2.72;88.16;99236.81;105824;1278;22835;-81
2022/01/16 03:28:26;;;;;;;68.60;30.90;;;;;;;-2.73;88.05;99238.60;105903;1277;137782;-80
2022/01/16 03:30:54;;;;;;;61.30;29.90;;;;;;;-2.73;88.09;99236.30;105978;1277;22579;-81
2022/01/16 03:33:22;;;;;;;62.40;29.10;;;;;;;-2.71;88.08;99232.96;106027;1277;22633;-80
2022/01/16 03:35:56;;;;;;;62.30;29.30;;;;;;;-2.70;88.22;99226.43;105829;1277;138067;-81
2022/01/16 03:38:22;;;;;;;57.40;28.10;;;;;;;-2.66;88.56;99221.69;105984;1279;22714;-81
2022/01/16 03:40:48;;;;;;;61.90;30.30;;;;;;;-2.64;88.50;99212.76;105882;1277;137888;-81
2022/01/16 03:43:15;;;;;;;65.50;32.10;;;;;;;-2.62;88.64;99205.13;105911;1277;24425;-81
2022/01/16 03:45:43;;;;;;;71.70;31.50;;;;;;;-2.62;88.14;99203.00;105892;1280;139141;-81
2022/01/16 03:48:09;;;;;;;61.30;28.40;;;;;;;-2.61;88.28;99202.56;105871;1280;22697;-81
2022/01/16 03:50:37;;;;;;;67.50;32.30;;;;;;;-2.60;88.63;99201.52;106012;1277;24606;-81
2022/01/16 03:53:06;;;;;;;62.60;30.20;;;;;;;-2.58;88.62;99193.48;105874;1277;138490;-83
2022/01/16 03:55:33;;;;;;;55.80;28.80;;;;;;;-2.56;88.58;99183.28;105758;1277;22567;-80
2022/01/16 03:58:01;;;;;;;58.70;29.00;;;;;;;-2.56;88.60;99174.91;105847;1277;137900;-81
2022/01/16 04:00:27;;;;;;;61.60;29.10;;;;;;;-2.57;88.15;99178.16;106027;1277;22567;-81
2022/01/16 04:02:59;;;;;;;55.90;26.90;;;;;;;-2.59;88.25;99172.68;105950;1280;22563;-81
2022/01/16 04:05:25;;;;;;;55.30;27.10;;;;;;;-2.59;87.80;99175.91;105987;1277;138386;-81
2022/01/16 04:07:51;;;;;;;55.50;25.70;;;;;;;-2.65;87.61;99176.05;105865;1279;25382;-80
2022/01/16 04:10:20;;;;;;;52.70;24.10;;;;;;;-2.75;87.01;99182.68;105730;1277;138211;-81
2022/01/16 04:12:47;;;;;;;44.90;23.40;;;;;;;-2.86;87.51;99179.45;105985;1278;24799;-82
2022/01/16 04:17:42;;;;;;;49.80;25.00;;;;;;;-2.97;87.49;99181.10;105773;1277;138453;-81
2022/01/16 04:20:09;;;;;;;53.30;25.70;;;;;;;-3.06;87.22;99181.10;106036;1277;22714;-80
2022/01/16 04:22:35;;;;;;;47.90;24.60;;;;;;;-3.14;87.51;99180.20;105858;1277;138197;-80
2022/01/16 04:25:01;;;;;;;48.20;23.70;;;;;;;-3.21;87.83;99175.91;106009;1277;22569;-80
2022/01/16 04:27:27;;;;;;;42.90;22.10;;;;;;;-3.28;87.99;99173.23;105991;1277;24440;-80
2022/01/16 04:29:54;;;;;;;48.00;23.80;;;;;;;-3.34;87.58;99174.02;106033;1277;137602;-80
2022/01/16 04:32:20;;;;;;;47.00;22.80;;;;;;;-3.41;87.97;99170.36;106215;1277;24296;-82
2022/01/16 04:34:46;;;;;;;43.30;22.70;;;;;;;-3.42;88.17;99166.07;105660;1280;139160;-81
2022/01/16 04:37:14;;;;;;;43.20;23.20;;;;;;;-3.43;88.68;99166.83;105958;1277;22566;-82
2022/01/16 04:39:48;;;;;;;46.80;22.90;;;;;;;-3.37;89.11;99168.93;105910;1277;138524;-81
2022/01/16 04:44:59;;;;;;;47.70;24.10;;;;;;;-3.27;89.17;99164.64;105868;1277;24311;-81
2022/01/16 04:47:26;;;;;;;44.40;22.40;;;;;;;-3.24;88.71;99166.70;105894;1277;138394;-81
2022/01/16 04:49:52;;;;;;;40.50;21.00;;;;;;;-3.23;88.67;99170.56;105939;1277;22558;-78
2022/01/16 04:52:18;;;;;;;40.60;21.00;;;;;;;-3.29;87.91;99173.72;105550;1277;138137;-82
2022/01/16 04:54:44;;;;;;;41.60;21.50;;;;;;;-3.32;88.47;99176.45;105782;1277;25402;-82
2022/01/16 04:57:13;;;;;;;42.60;20.80;;;;;;;-3.30;88.71;99178.77;105951;1277;25311;-80
2022/01/16 04:59:40;;;;;;;47.60;22.80;;;;;;;-3.27;88.76;99167.87;105859;1277;137938;-80
2022/01/16 05:02:06;;;;;;;46.70;21.40;;;;;;;-3.26;88.53;99159.11;105905;1277;23048;-80
2022/01/16 05:04:33;;;;;;;42.10;21.00;;;;;;;-3.26;88.76;99153.52;106097;1277;138052;-80
2022/01/16 05:06:59;;;;;;;40.20;20.00;;;;;;;-3.28;88.10;99148.09;106012;1277;24393;-80
2022/01/16 05:09:25;;;;;;;41.40;20.60;;;;;;;-3.38;87.87;99139.98;105871;1280;22752;-79
2022/01/16 05:11:56;;;;;;;39.50;21.20;;;;;;;-3.44;88.36;99140.45;105759;1280;137751;-81
2022/01/16 05:17:07;;;;;;;44.60;21.20;;;;;;;-3.53;87.85;99138.08;105759;1277;138557;-80
2022/01/16 05:19:34;;;;;;;37.90;17.60;;;;;;;-3.58;87.60;99138.17;105944;1277;22796;-80
2022/01/16 05:22:00;;;;;;;35.90;17.70;;;;;;;-3.69;87.13;99138.65;105993;1277;137800;-80
2022/01/16 05:24:31;;;;;;;43.40;20.00;;;;;;;-3.86;87.35;99134.10;105972;1277;26698;-80
2022/01/16 05:26:58;;;;;;;39.40;17.50;;;;;;;-3.97;87.95;99130.80;105932;1277;25325;-80
2022/01/16 05:29:24;;;;;;;40.40;18.90;;;;;;;-4.12;87.60;99126.61;105698;1277;138026;-81
2022/01/16 05:31:50;;;;;;;41.10;20.20;;;;;;;-4.26;87.57;99124.31;105809;1277;24230;-80
2022/01/16 05:34:18;;;;;;;39.20;18.80;;;;;;;-4.34;88.17;99124.27;105901;1277;138635;-80
2022/01/16 05:36:45;;;;;;;37.30;18.50;;;;;;;-4.39;88.58;99119.56;106043;1277;24114;-80
2022/01/16 05:39:12;;;;;;;40.90;20.10;;;;;;;-4.39;89.41;99118.30;106033;1277;24441;-80
2022/01/16 05:41:38;;;;;;;32.70;16.10;;;;;;;-4.40;89.15;99115.77;105898;1277;138110;-80
2022/01/16 05:44:04;;;;;;;38.80;16.80;;;;;;;-4.45;88.84;99105.41;106118;1277;22581;-80
2022/01/16 05:46:31;;;;;;;34.20;16.90;;;;;;;-4.52;88.83;99101.73;105962;1277;137735;-81
2022/01/16 05:48:57;;;;;;;43.30;21.80;;;;;;;-4.56;89.27;99103.90;105931;1277;26554;-80
2022/01/16 05:51:23;;;;;;;47.50;22.30;;;;;;;-4.54;89.71;99110.13;105859;1277;22632;-82
2022/01/16 05:53:51;;;;;;;43.40;22.20;;;;;;;-4.49;89.99;99112.10;106051;1277;138619;-82
2022/01/16 05:56:18;;;;;;;42.20;20.40;;;;;;;-4.39;90.39;99113.77;106004;1277;23462;-80
2022/01/16 05:58:44;;;;;;;42.70;20.30;;;;;;;-4.35;90.01;99110.90;105892;1277;137712;-80
2022/01/16 06:01:10;;;;;;;42.20;19.60;;;;;;;-4.30;90.32;99111.58;106050;1277;24212;-80
2022/01/16 06:03:36;;;;;;;40.90;19.50;;;;;;;-4.31;89.64;99114.67;105821;1280;138411;-79
2022/01/16 06:06:03;;;;;;;48.10;21.30;;;;;;;-4.32;89.59;99114.08;106017;1277;22667;-80
2022/01/16 06:08:30;;;;;;;46.70;21.60;;;;;;;-4.30;90.26;99113.47;105946;1277;25510;-80
2022/01/16 06:10:56;;;;;;;43.00;20.80;;;;;;;-4.27;89.61;99117.65;105662;1277;139007;-80
2022/01/16 06:13:22;;;;;;;45.20;20.00;;;;;;;-4.21;90.22;99115.40;105805;1277;24329;-80
2022/01/16 06:15:48;;;;;;;48.50;20.90;;;;;;;-4.14;90.69;99117.41;105817;1277;138106;-80
2022/01/16 06:18:14;;;;;;;54.80;22.90;;;;;;;-4.08;89.88;99116.56;106029;1277;22691;-79
2022/01/16 06:20:41;;;;;;;53.60;23.20;;;;;;;-4.02;90.58;99114.23;106023;1277;25266;-80
2022/01/16 06:23:08;;;;;;;49.90;23.60;;;;;;;-3.97;90.42;99110.77;105938;1277;138494;-80
2022/01/16 06:25:35;;;;;;;45.70;21.40;;;;;;;-3.90;90.08;99109.61;106009;1277;22637;-82
2022/01/16 06:28:15;;;;;;;44.00;21.50;;;;;;;-3.91;89.47;99095.89;105839;1277;137899;-81
2022/01/16 06:30:42;;;;;;;44.70;21.90;;;;;;;-3.89;89.87;99100.52;106021;1277;22571;-81
2022/01/16 06:33:09;;;;;;;41.80;19.60;;;;;;;-3.86;89.30;99097.05;106021;1277;22573;-81
2022/01/16 06:35:35;;;;;;;42.80;19.60;;;;;;;-3.93;88.54;99093.52;105872;1277;137770;-81
2022/01/16 06:38:02;;;;;;;44.10;20.30;;;;;;;-4.01;88.42;99094.51;106021;1277;25620;-80
2022/01/16 06:40:28;;;;;;;43.90;22.30;;;;;;;-4.07;88.20;99097.86;105791;1277;138749;-79
2022/01/16 06:42:54;;;;;;;39.30;20.80;;;;;;;-4.14;88.05;99100.05;105928;1277;24305;-80
2022/01/16 06:45:20;;;;;;;42.20;19.70;;;;;;;-4.19;87.99;99096.80;105769;1277;23693;-81
2022/01/16 06:47:46;;;;;;;39.90;18.30;;;;;;;-4.21;88.39;99089.15;105764;1280;137768;-79
2022/01/16 06:50:13;;;;;;;42.60;18.80;;;;;;;-4.20;88.91;99085.98;106006;1277;23279;-80
2022/01/16 06:52:39;;;;;;;46.20;21.30;;;;;;;-4.18;88.81;99087.27;105812;1280;138444;-80
2022/01/16 06:55:06;;;;;;;44.10;21.10;;;;;;;-4.18;88.99;99086.41;105963;1280;22696;-80
2022/01/16 06:57:32;;;;;;;37.80;19.80;;;;;;;-4.17;88.97;99084.57;105956;1278;23519;-80
2022/01/16 06:59:59;;;;;;;44.70;20.70;;;;;;;-4.15;88.58;99082.23;105769;1277;137956;-80
2022/01/16 07:02:25;;;;;;;44.60;20.30;;;;;;;-4.12;88.43;99080.52;105620;1278;23061;-80
2022/01/16 07:04:51;;;;;;;46.60;20.20;;;;;;;-4.08;88.74;99073.45;105597;1278;138043;-80
2022/01/16 07:07:17;;;;;;;53.50;20.90;;;;;;;-4.06;88.84;99075.36;105840;1281;22570;-80
2022/01/16 07:09:44;;;;;;;45.90;22.00;;;;;;;-4.05;88.42;99073.88;106013;1277;138002;-79
2022/01/16 07:12:11;;;;;;;47.40;21.40;;;;;;;-4.04;88.46;99070.60;105978;1282;24268;-79
2022/01/16 07:14:37;;;;;;;49.00;22.80;;;;;;;-4.00;88.51;99062.66;105964;1278;24353;-82
2022/01/16 07:17:04;;;;;;;51.60;23.50;;;;;;;-3.94;88.61;99054.86;105777;1278;137874;-81
2022/01/16 07:19:30;;;;;;;54.20;23.40;;;;;;;-3.89;88.96;99050.48;105779;1277;22576;-83
2022/01/16 07:21:59;;;;;;;53.20;23.80;;;;;;;-3.85;88.76;99047.27;105727;1281;137984;-82
2022/01/16 07:24:25;;;;;;;51.90;23.40;;;;;;;-3.83;88.06;99045.30;106138;1281;23931;-80
2022/01/16 07:26:51;;;;;;;49.80;22.60;;;;;;;-3.82;87.94;99044.85;106375;1277;25220;-81
2022/01/16 07:29:17;;;;;;;59.50;24.60;;;;;;;-3.78;88.19;99041.32;106202;1277;138086;-81
2022/01/16 07:31:44;;;;;;;53.80;23.70;;;;;;;-3.71;87.99;99049.52;106078;1281;22561;-80
2022/01/16 07:34:10;;;;;;;55.10;25.10;;;;;;;-3.67;87.71;99044.96;106119;1277;137911;-81
2022/01/16 07:36:38;;;;;;;57.70;25.60;;;;;;;-3.65;87.54;99044.44;106275;1281;23139;-82
2022/01/16 07:39:05;;;;;;;56.70;24.50;;;;;;;-3.65;87.22;99049.37;106102;1278;25432;-81
2022/01/16 07:41:31;;;;;;;52.30;24.10;;;;;;;-3.66;87.09;99056.55;106169;1277;138511;-80
2022/01/16 07:43:58;;;;;;;51.20;23.80;;;;;;;-3.61;87.15;99060.74;106043;1281;22547;-81
2022/01/16 07:46:24;;;;;;;60.80;26.60;;;;;;;-3.52;87.79;99056.02;106105;1278;137835;-79
2022/01/16 07:48:50;;;;;;;63.70;28.20;;;;;;;-3.44;87.50;99053.34;105908;1281;24269;-79
2022/01/16 07:51:16;;;;;;;62.80;28.70;;;;;;;-3.37;87.64;99051.87;106197;1278;24008;-81
2022/01/16 07:53:42;;;;;;;65.20;28.00;;;;;;;-3.36;87.55;99045.64;106035;1278;138646;-80
2022/01/16 07:56:09;;;;;;;74.70;29.10;;;;;;;-3.34;86.89;99048.13;106085;1278;25278;-79
2022/01/16 07:58:36;;;;;;;74.40;29.90;;;;;;;-3.32;86.68;99045.96;106171;1277;138538;-80
2022/01/16 08:01:03;;;;;;;68.70;30.70;;;;;;;-3.30;86.86;99046.52;106173;1278;25257;-81
2022/01/16 08:03:30;;;;;;;70.10;28.50;;;;;;;-3.27;86.90;99049.59;106130;1278;22612;-80
2022/01/16 08:05:56;;;;;;;64.20;29.20;;;;;;;-3.22;87.30;99046.55;106094;1278;137731;-80
2022/01/16 08:08:22;;;;;;;64.20;28.60;;;;;;;-3.16;87.33;99043.11;106156;1277;23943;-80
2022/01/16 08:10:48;;;;;;;67.10;28.70;;;;;;;-3.17;86.59;99033.75;106139;1277;137700;-80
2022/01/16 08:13:14;;;;;;;70.60;31.00;;;;;;;-3.19;86.89;99040.03;106043;1278;22828;-80
2022/01/16 08:15:43;;;;;;;65.20;30.80;;;;;;;-3.16;87.37;99033.20;106099;1277;138588;-80
2022/01/16 08:18:10;;;;;;;68.80;31.90;;;;;;;-3.10;87.20;99032.41;106068;1278;22573;-80
2022/01/16 08:20:37;;;;;;;71.30;31.90;;;;;;;-3.04;87.31;99029.08;106167;1277;25352;-80
2022/01/16 08:23:03;;;;;;;71.00;31.30;;;;;;;-3.00;87.08;99022.96;106303;1278;137680;-80
2022/01/16 08:25:29;;;;;;;65.00;30.80;;;;;;;-3.00;86.89;99008.02;106298;1278;25332;-80
2022/01/16 08:27:55;;;;;;;70.70;31.50;;;;;;;-2.96;86.68;99012.84;106298;1278;137854;-80
2022/01/16 08:30:22;;;;;;;73.50;31.50;;;;;;;-2.96;86.48;99015.84;106404;1277;22547;-79
2022/01/16 08:32:48;;;;;;;70.30;31.10;;;;;;;-2.96;86.43;99011.20;106192;1277;22561;-77
2022/01/16 08:35:14;;;;;;;66.00;31.30;;;;;;;-2.92;86.67;99001.41;105850;1278;138942;-80
2022/01/16 08:37:41;;;;;;;76.30;33.50;;;;;;;-2.84;87.13;98998.21;106207;1277;22685;-80
2022/01/16 08:40:08;;;;;;;71.80;31.80;;;;;;;-2.73;87.18;98999.32;106020;1277;138374;-80
2022/01/16 08:42:36;;;;;;;71.70;30.50;;;;;;;-2.67;86.99;98988.58;106438;1277;25341;-80
2022/01/16 08:45:04;;;;;;;72.10;32.00;;;;;;;-2.62;86.78;98979.61;106281;1278;23188;-80
2022/01/16 08:47:31;;;;;;;71.10;32.90;;;;;;;-2.63;86.39;98974.69;106207;1277;138780;-79
2022/01/16 08:49:58;;;;;;;68.50;31.50;;;;;;;-2.61;86.20;98965.30;106098;1277;22651;-80
2022/01/16 08:52:26;;;;;;;77.50;32.00;;;;;;;-2.59;86.34;98959.55;106314;1277;137798;-79
2022/01/16 08:55:08;;;;;;;71.00;30.10;;;;;;;-2.55;86.63;98962.22;105901;1281;22707;-81
2022/01/16 08:57:35;;;;;;;74.30;33.40;;;;;;;-2.47;86.86;98957.17;106226;1280;137876;-82
2022/01/16 09:00:06;;;;;;;79.10;34.00;;;;;;;-2.36;87.28;98954.98;106378;1280;25224;-83
2022/01/16 09:02:32;;;;;;;79.20;34.40;;;;;;;-2.24;87.07;98955.63;106185;1278;24241;-85
2022/01/16 09:04:58;;;;;;;72.30;34.10;;;;;;;-2.14;86.66;98950.14;106094;1281;138428;-83
2022/01/16 09:07:25;;;;;;;73.00;32.70;;;;;;;-2.10;86.21;98946.90;106129;1279;22597;-79
2022/01/16 09:09:51;;;;;;;78.70;34.00;;;;;;;-2.10;85.90;98950.00;106046;1281;137878;-84
2022/01/16 09:12:17;;;;;;;81.50;36.00;;;;;;;-2.09;85.90;98942.80;106049;1280;24332;-85
2022/01/16 09:14:43;;;;;;;86.00;39.10;;;;;;;-2.09;85.79;98936.00;106188;1279;22560;-84
2022/01/16 09:17:10;;;;;;;94.60;38.00;;;;;;;-2.10;85.46;98927.35;105920;1278;138178;-81
2022/01/16 09:19:36;;;;;;;100.80;44.20;;;;;;;-2.14;85.26;98924.89;106073;1280;24262;-84
2022/01/16 09:22:02;;;;;;;82.40;39.10;;;;;;;-2.13;85.30;98920.75;106041;1277;138947;-81
2022/01/16 09:24:31;;;;;;;89.40;37.60;;;;;;;-2.08;85.56;98918.87;106242;1277;24285;-84
2022/01/16 09:26:57;;;;;;;87.40;36.40;;;;;;;-2.01;85.43;98911.75;106018;1277;25268;-84
2022/01/16 09:29:23;;;;;;;75.00;34.70;;;;;;;-1.93;85.92;98900.79;106115;1277;137639;-82
2022/01/16 09:31:49;;;;;;;86.60;36.20;;;;;;;-1.92;85.67;98892.79;106117;1281;22571;-82
2022/01/16 09:34:16;;;;;;;82.80;36.80;;;;;;;-1.92;85.44;98886.66;106149;1277;137991;-82
2022/01/16 09:36:44;;;;;;;85.40;35.80;;;;;;;-1.96;85.34;98891.42;106148;1281;26673;-81
2022/01/16 09:39:10;;;;;;;83.30;37.70;;;;;;;-1.93;85.53;98893.70;106341;1277;24226;-81
2022/01/16 09:41:37;;;;;;;79.40;34.70;;;;;;;-1.89;85.63;98892.08;106370;1278;138880;-83
2022/01/16 09:44:04;;;;;;;72.90;33.70;;;;;;;-1.80;85.94;98890.80;106509;1277;24363;-83
2022/01/16 09:46:30;;;;;;;82.00;35.30;;;;;;;-1.67;86.29;98885.17;106169;1277;137764;-82
2022/01/16 09:48:56;;;;;;;78.00;33.80;;;;;;;-1.53;86.36;98877.92;106234;1277;229663;-83
2022/01/16 09:51:23;;;;;;;72.90;34.70;;;;;;;-1.43;85.86;98874.38;106325;1277;22618;-82
2022/01/16 09:53:49;;;;;;;88.40;35.90;;;;;;;-1.37;85.77;98871.77;106061;1277;138619;-83
2022/01/16 09:56:16;;;;;;;79.90;35.20;;;;;;;-1.29;85.87;98864.03;106102;1277;23962;-82
2022/01/16 09:58:57;;;;;;;82.30;34.90;;;;;;;-1.21;85.29;98864.46;105624;1281;138697;-76
2022/01/16 10:01:23;;;;;;;79.20;35.10;;;;;;;-1.16;84.71;98855.52;106266;1280;22579;-79
2022/01/16 10:03:49;;;;;;;94.80;41.40;;;;;;;-1.15;84.33;98855.06;106099;1277;138212;-82
2022/01/16 10:06:19;;;;;;;96.60;41.40;;;;;;;-1.13;84.57;98849.05;106038;1280;23281;-82
2022/01/16 10:08:45;;;;;;;;;;;;;;;-1.11;84.56;98843.27;106455;1277;22614;-83
2022/01/16 10:11:50;;;;;;;93.20;39.10;;;;;;;-1.14;84.34;98835.89;106242;1277;124077;-82
2022/01/16 10:14:23;;;;;;;87.20;38.00;;;;;;;-1.15;84.34;98836.05;106358;1277;24377;-82
2022/01/16 10:16:49;;;;;;;97.00;40.60;;;;;;;-1.16;84.19;98827.96;106400;1277;137963;-82
2022/01/16 10:19:29;;;;;;;101.20;41.30;;;;;;;-1.17;84.58;98826.82;106347;1277;22713;-82
2022/01/16 10:22:03;;;;;;;87.40;37.80;;;;;;;-1.15;84.08;98823.86;105932;1277;138892;-81
2022/01/16 10:24:34;;;;;;;79.30;34.50;;;;;;;-1.12;84.00;98821.79;105939;1277;25487;-83
2022/01/16 10:27:17;;;;;;;80.40;35.20;;;;;;;-1.07;84.07;98820.73;105965;1277;23026;-81
2022/01/16 10:29:45;;;;;;;80.00;34.30;;;;;;;-1.02;83.91;98820.23;105775;1280;137771;-81
2022/01/16 10:32:31;;;;;;;81.50;35.60;;;;;;;-1.00;83.27;98819.63;105808;1280;22597;-81
2022/01/16 10:35:19;;;;;;;71.40;31.80;;;;;;;-0.95;83.67;98818.27;105823;1280;137911;-81
2022/01/16 10:37:49;;;;;;;75.40;32.70;;;;;;;-0.92;83.39;98814.34;105965;1279;24258;-81
2022/01/16 10:40:22;;;;;;;81.60;33.50;;;;;;;-0.88;83.14;98807.67;105717;1280;138855;-80
2022/01/16 10:42:52;;;;;;;67.20;31.00;;;;;;;-0.81;82.83;98802.11;105714;1280;23223;-81
2022/01/16 10:45:23;;;;;;;66.30;29.30;;;;;;;-0.73;82.59;98797.17;106071;1280;22706;-80
2022/01/16 10:47:53;;;;;;;61.80;29.60;;;;;;;-0.65;82.24;98792.48;105841;1278;137633;-80
2022/01/16 10:50:22;;;;;;;58.90;26.40;;;;;;;-0.61;82.05;98790.34;105957;1277;24437;-80
2022/01/16 10:52:53;;;;;;;56.90;24.10;;;;;;;-0.52;81.21;98786.58;105882;1277;137715;-80
2022/01/16 10:55:23;;;;;;;57.20;24.70;;;;;;;-0.46;80.47;98778.65;105961;1277;22620;-84
2022/01/16 10:57:50;;;;;;;53.20;24.00;;;;;;;-0.41;80.25;98773.27;105887;1277;138486;-83
2022/01/16 11:00:22;;;;;;;54.50;24.20;;;;;;;-0.35;80.27;98765.02;106057;1277;25548;-82
2022/01/16 11:02:51;;;;;;;68.20;29.80;;;;;;;-0.32;79.21;98760.94;106307;1277;29399;-80
2022/01/16 11:05:22;;;;;;;65.80;29.70;;;;;;;-0.30;79.27;98754.58;107295;1278;139298;-81
2022/01/16 11:07:57;;;;;;;61.40;25.90;;;;;;;-0.24;79.40;98749.59;106646;1277;23493;-81
2022/01/16 11:10:29;;;;;;;65.80;28.20;;;;;;;-0.18;79.37;98749.17;106414;1277;138520;-81
2022/01/16 11:12:59;;;;;;;69.70;27.90;;;;;;;-0.08;79.43;98739.93;106699;1278;25483;-81
2022/01/16 11:15:26;;;;;;;68.60;30.20;;;;;;;0.05;79.71;98731.31;106582;1277;22569;-81
2022/01/16 11:17:53;;;;;;;68.70;30.20;;;;;;;0.21;80.09;98725.44;106742;1277;137382;-81
2022/01/16 11:20:27;;;;;;;69.30;30.20;;;;;;;0.33;79.35;98724.36;106614;1277;24297;-81
2022/01/16 11:23:00;;;;;;;63.30;29.00;;;;;;;0.44;79.21;98723.95;106591;1277;137754;-81
2022/01/16 11:25:31;;;;;;;63.70;29.10;;;;;;;0.54;78.62;98720.95;106606;1277;22551;-84
2022/01/16 11:28:09;;;;;;;60.40;27.50;;;;;;;0.64;78.32;98721.09;106381;1277;138746;-82
2022/01/16 11:30:42;;;;;;;68.30;31.10;;;;;;;0.74;77.86;98724.27;106680;1277;25320;-82
2022/01/16 11:33:09;;;;;;;63.70;27.70;;;;;;;0.83;78.28;98725.52;106948;1277;23382;-81
2022/01/16 11:35:41;;;;;;;66.70;30.60;;;;;;;0.93;77.81;98724.39;106293;1277;138803;-81
2022/01/16 11:38:09;;;;;;;70.20;30.30;;;;;;;1.01;77.75;98720.66;106468;1277;24402;-82
2022/01/16 11:40:47;;;;;;;65.10;30.10;;;;;;;1.10;77.83;98716.21;106281;1277;138082;-81
2022/01/16 11:43:19;;;;;;;62.20;25.90;;;;;;;1.17;77.16;98712.75;106646;1277;22610;-81
2022/01/16 11:46:02;;;;;;;62.80;27.20;;;;;;;1.19;77.43;98712.09;106393;1277;138026;-81
2022/01/16 11:48:33;;;;;;;53.90;25.70;;;;;;;1.23;76.65;98710.55;106832;1277;22856;-81
2022/01/16 11:50:59;;;;;;;56.80;24.20;;;;;;;1.31;76.28;98711.77;105960;1277;24325;-81
2022/01/16 11:54:06;;;;;;;58.20;28.90;;;;;;;1.41;76.27;98712.67;106010;1277;137832;-81
2022/01/16 11:56:41;;;;;;;62.60;27.60;;;;;;;1.53;76.31;98708.64;106060;1277;24272;-82
2022/01/16 11:59:35;;;;;;;49.20;24.80;;;;;;;1.64;76.07;98705.80;106032;1277;137578;-81
2022/01/16 12:02:17;;;;;;;55.00;24.70;;;;;;;1.77;75.80;98705.92;106474;1277;25267;-81
2022/01/16 12:04:43;;;;;;;55.50;23.60;;;;;;;1.85;75.11;98704.56;106188;1277;137501;-81